sensor_id;sensor_type;location;lat;lon;timestamp;P1;durP1;ratioP1;P2;durP2;ratioP2
77206;SDS011;66190;50.708;7.906;2023-03-01T00:02:20;16.27;;;7.00;;
77206;SDS011;66190;50.708;7.906;2023-03-01T00:04:45;18.55;;;7.05;;
77206;SDS011;66190;50.708;7.906;2023-03-01T00:07:11;14.33;;;6.57;;
77206;SDS011;66190;50.708;7.906;2023-03-01T00:09:37;19.83;;;7.25;;
77206;SDS011;66190;50.708;7.906;2023-03-01T00:12:05;14.98;;;6.88;;
77206;SDS011;66190;50.708;7.906;2023-03-01T00:14:30;18.10;;;7.13;;
77206;SDS011;66190;50.708;7.906;2023-03-01T00:16:56;20.52;;;6.90;;
77206;SDS011;66190;50.708;7.906;2023-03-01T00:19:22;17.60;;;7.10;;
77206;SDS011;66190;50.708;7.906;2023-03-01T00:21:48;14.73;;;6.70;;
77206;SDS011;66190;50.708;7.906;2023-03-01T00:24:14;15.38;;;6.75;;
77206;SDS011;66190;50.708;7.906;2023-03-01T00:26:40;14.77;;;6.43;;
77206;SDS011;66190;50.708;7.906;2023-03-01T00:29:05;15.90;;;6.78;;
77206;SDS011;66190;50.708;7.906;2023-03-01T00:31:32;18.38;;;7.03;;
77206;SDS011;66190;50.708;7.906;2023-03-01T00:33:59;15.80;;;6.50;;
77206;SDS011;66190;50.708;7.906;2023-03-01T00:36:31;18.92;;;6.35;;
77206;SDS011;66190;50.708;7.906;2023-03-01T00:38:58;17.00;;;6.65;;
77206;SDS011;66190;50.708;7.906;2023-03-01T00:41:24;17.92;;;7.22;;
77206;SDS011;66190;50.708;7.906;2023-03-01T00:43:51;16.70;;;6.60;;
77206;SDS011;66190;50.708;7.906;2023-03-01T00:46:18;17.25;;;6.78;;
77206;SDS011;66190;50.708;7.906;2023-03-01T00:48:46;15.32;;;6.53;;
77206;SDS011;66190;50.708;7.906;2023-03-01T00:51:16;19.20;;;5.77;;
77206;SDS011;66190;50.708;7.906;2023-03-01T00:53:46;17.92;;;6.55;;
77206;SDS011;66190;50.708;7.906;2023-03-01T00:56:14;16.70;;;7.43;;
77206;SDS011;66190;50.708;7.906;2023-03-01T00:58:40;15.27;;;6.47;;
77206;SDS011;66190;50.708;7.906;2023-03-01T01:01:09;16.40;;;7.18;;
77206;SDS011;66190;50.708;7.906;2023-03-01T01:03:44;19.17;;;7.10;;
77206;SDS011;66190;50.708;7.906;2023-03-01T01:06:17;16.67;;;6.72;;
77206;SDS011;66190;50.708;7.906;2023-03-01T01:08:45;18.03;;;6.50;;
77206;SDS011;66190;50.708;7.906;2023-03-01T01:11:11;20.00;;;7.00;;
77206;SDS011;66190;50.708;7.906;2023-03-01T01:13:37;16.25;;;6.65;;
77206;SDS011;66190;50.708;7.906;2023-03-01T01:16:04;17.45;;;7.28;;
77206;SDS011;66190;50.708;7.906;2023-03-01T01:18:30;18.15;;;7.68;;
77206;SDS011;66190;50.708;7.906;2023-03-01T01:20:55;20.40;;;7.20;;
77206;SDS011;66190;50.708;7.906;2023-03-01T01:23:21;17.08;;;7.13;;
77206;SDS011;66190;50.708;7.906;2023-03-01T01:25:47;18.98;;;8.10;;
77206;SDS011;66190;50.708;7.906;2023-03-01T01:28:12;16.70;;;6.90;;
77206;SDS011;66190;50.708;7.906;2023-03-01T01:30:38;16.70;;;6.93;;
77206;SDS011;66190;50.708;7.906;2023-03-01T01:33:04;16.23;;;7.27;;
77206;SDS011;66190;50.708;7.906;2023-03-01T01:35:29;15.57;;;7.15;;
77206;SDS011;66190;50.708;7.906;2023-03-01T01:37:55;18.13;;;7.60;;
77206;SDS011;66190;50.708;7.906;2023-03-01T01:40:20;16.23;;;6.60;;
77206;SDS011;66190;50.708;7.906;2023-03-01T01:42:46;15.55;;;7.03;;
77206;SDS011;66190;50.708;7.906;2023-03-01T01:45:25;19.63;;;7.47;;
77206;SDS011;66190;50.708;7.906;2023-03-01T01:48:03;18.05;;;7.20;;
77206;SDS011;66190;50.708;7.906;2023-03-01T01:50:35;18.85;;;7.18;;
77206;SDS011;66190;50.708;7.906;2023-03-01T01:53:09;19.93;;;7.27;;
77206;SDS011;66190;50.708;7.906;2023-03-01T01:55:45;17.13;;;7.00;;
77206;SDS011;66190;50.708;7.906;2023-03-01T01:58:17;14.50;;;6.15;;
77206;SDS011;66190;50.708;7.906;2023-03-01T02:00:45;15.27;;;6.35;;
77206;SDS011;66190;50.708;7.906;2023-03-01T02:03:13;17.42;;;6.97;;
77206;SDS011;66190;50.708;7.906;2023-03-01T02:05:49;17.10;;;6.77;;
77206;SDS011;66190;50.708;7.906;2023-03-01T02:08:23;16.40;;;7.20;;
77206;SDS011;66190;50.708;7.906;2023-03-01T02:10:51;20.10;;;7.43;;
77206;SDS011;66190;50.708;7.906;2023-03-01T02:13:19;16.10;;;6.55;;
77206;SDS011;66190;50.708;7.906;2023-03-01T02:15:45;18.37;;;6.87;;
77206;SDS011;66190;50.708;7.906;2023-03-01T02:18:12;17.85;;;7.65;;
77206;SDS011;66190;50.708;7.906;2023-03-01T02:23:17;16.73;;;6.60;;
77206;SDS011;66190;50.708;7.906;2023-03-01T02:28:25;19.85;;;7.20;;
77206;SDS011;66190;50.708;7.906;2023-03-01T02:30:58;20.80;;;7.20;;
77206;SDS011;66190;50.708;7.906;2023-03-01T02:33:42;16.83;;;6.57;;
77206;SDS011;66190;50.708;7.906;2023-03-01T02:36:12;16.85;;;7.00;;
77206;SDS011;66190;50.708;7.906;2023-03-01T02:38:42;17.50;;;7.00;;
77206;SDS011;66190;50.708;7.906;2023-03-01T02:41:08;18.33;;;7.22;;
77206;SDS011;66190;50.708;7.906;2023-03-01T02:43:38;18.20;;;7.07;;
77206;SDS011;66190;50.708;7.906;2023-03-01T02:46:17;22.73;;;7.70;;
77206;SDS011;66190;50.708;7.906;2023-03-01T02:48:49;18.38;;;8.13;;
77206;SDS011;66190;50.708;7.906;2023-03-01T02:56:31;18.58;;;7.60;;
77206;SDS011;66190;50.708;7.906;2023-03-01T02:58:57;18.55;;;7.25;;
77206;SDS011;66190;50.708;7.906;2023-03-01T03:01:26;19.00;;;7.60;;
77206;SDS011;66190;50.708;7.906;2023-03-01T03:04:01;17.65;;;7.22;;
77206;SDS011;66190;50.708;7.906;2023-03-01T03:06:28;19.08;;;7.50;;
77206;SDS011;66190;50.708;7.906;2023-03-01T03:08:54;22.13;;;8.15;;
77206;SDS011;66190;50.708;7.906;2023-03-01T03:11:20;19.73;;;7.57;;
77206;SDS011;66190;50.708;7.906;2023-03-01T03:13:45;18.93;;;8.07;;
77206;SDS011;66190;50.708;7.906;2023-03-01T03:16:13;19.40;;;7.47;;
77206;SDS011;66190;50.708;7.906;2023-03-01T03:18:39;17.77;;;7.75;;
77206;SDS011;66190;50.708;7.906;2023-03-01T03:21:08;16.60;;;7.53;;
77206;SDS011;66190;50.708;7.906;2023-03-01T03:23:37;16.00;;;6.25;;
77206;SDS011;66190;50.708;7.906;2023-03-01T03:26:04;18.02;;;7.82;;
77206;SDS011;66190;50.708;7.906;2023-03-01T03:28:31;20.63;;;8.63;;
77206;SDS011;66190;50.708;7.906;2023-03-01T03:30:57;23.15;;;8.18;;
77206;SDS011;66190;50.708;7.906;2023-03-01T03:33:23;16.73;;;7.70;;
77206;SDS011;66190;50.708;7.906;2023-03-01T03:35:49;18.88;;;7.13;;
77206;SDS011;66190;50.708;7.906;2023-03-01T03:38:16;17.52;;;7.70;;
77206;SDS011;66190;50.708;7.906;2023-03-01T03:40:50;19.43;;;8.07;;
77206;SDS011;66190;50.708;7.906;2023-03-01T03:43:26;17.40;;;7.47;;
77206;SDS011;66190;50.708;7.906;2023-03-01T03:45:51;15.98;;;6.82;;
77206;SDS011;66190;50.708;7.906;2023-03-01T03:48:19;19.38;;;7.10;;
77206;SDS011;66190;50.708;7.906;2023-03-01T03:50:48;19.47;;;6.67;;
77206;SDS011;66190;50.708;7.906;2023-03-01T03:53:16;17.08;;;7.13;;
77206;SDS011;66190;50.708;7.906;2023-03-01T03:55:42;17.00;;;6.70;;
77206;SDS011;66190;50.708;7.906;2023-03-01T03:58:09;20.13;;;6.68;;
77206;SDS011;66190;50.708;7.906;2023-03-01T04:00:36;17.00;;;6.75;;
77206;SDS011;66190;50.708;7.906;2023-03-01T04:03:03;18.43;;;7.37;;
77206;SDS011;66190;50.708;7.906;2023-03-01T04:05:30;19.50;;;6.63;;
77206;SDS011;66190;50.708;7.906;2023-03-01T04:07:55;19.63;;;7.82;;
77206;SDS011;66190;50.708;7.906;2023-03-01T04:10:31;18.73;;;6.90;;
77206;SDS011;66190;50.708;7.906;2023-03-01T04:13:00;18.20;;;7.50;;
77206;SDS011;66190;50.708;7.906;2023-03-01T04:15:26;21.23;;;8.18;;
77206;SDS011;66190;50.708;7.906;2023-03-01T04:17:52;21.85;;;8.40;;
77206;SDS011;66190;50.708;7.906;2023-03-01T04:20:24;19.03;;;7.90;;
77206;SDS011;66190;50.708;7.906;2023-03-01T04:22:52;20.58;;;8.35;;
77206;SDS011;66190;50.708;7.906;2023-03-01T04:25:38;21.80;;;8.35;;
77206;SDS011;66190;50.708;7.906;2023-03-01T04:28:05;17.73;;;7.80;;
77206;SDS011;66190;50.708;7.906;2023-03-01T04:30:31;20.15;;;8.10;;
77206;SDS011;66190;50.708;7.906;2023-03-01T04:33:01;16.57;;;7.00;;
77206;SDS011;66190;50.708;7.906;2023-03-01T04:35:28;19.27;;;7.25;;
77206;SDS011;66190;50.708;7.906;2023-03-01T04:37:54;20.60;;;8.02;;
77206;SDS011;66190;50.708;7.906;2023-03-01T04:40:20;17.38;;;7.15;;
77206;SDS011;66190;50.708;7.906;2023-03-01T04:42:46;19.98;;;7.85;;
77206;SDS011;66190;50.708;7.906;2023-03-01T04:45:12;21.52;;;7.55;;
77206;SDS011;66190;50.708;7.906;2023-03-01T04:47:41;18.60;;;7.43;;
77206;SDS011;66190;50.708;7.906;2023-03-01T04:50:09;18.98;;;7.70;;
77206;SDS011;66190;50.708;7.906;2023-03-01T04:52:36;22.52;;;8.30;;
77206;SDS011;66190;50.708;7.906;2023-03-01T04:55:02;23.23;;;10.15;;
77206;SDS011;66190;50.708;7.906;2023-03-01T04:57:28;21.80;;;9.37;;
77206;SDS011;66190;50.708;7.906;2023-03-01T04:59:54;38.42;;;16.98;;
77206;SDS011;66190;50.708;7.906;2023-03-01T05:02:20;36.58;;;16.40;;
77206;SDS011;66190;50.708;7.906;2023-03-01T05:04:46;32.17;;;15.73;;
77206;SDS011;66190;50.708;7.906;2023-03-01T05:07:11;22.83;;;9.05;;
77206;SDS011;66190;50.708;7.906;2023-03-01T05:09:38;18.80;;;8.05;;
77206;SDS011;66190;50.708;7.906;2023-03-01T05:12:04;35.33;;;14.30;;
77206;SDS011;66190;50.708;7.906;2023-03-01T05:14:29;24.25;;;8.38;;
77206;SDS011;66190;50.708;7.906;2023-03-01T05:16:55;19.15;;;7.03;;
77206;SDS011;66190;50.708;7.906;2023-03-01T05:19:28;20.10;;;7.20;;
77206;SDS011;66190;50.708;7.906;2023-03-01T05:21:55;22.73;;;8.38;;
77206;SDS011;66190;50.708;7.906;2023-03-01T05:24:32;23.20;;;8.82;;
77206;SDS011;66190;50.708;7.906;2023-03-01T05:26:59;21.85;;;8.10;;
77206;SDS011;66190;50.708;7.906;2023-03-01T05:29:27;20.38;;;8.75;;
77206;SDS011;66190;50.708;7.906;2023-03-01T05:31:54;22.17;;;8.37;;
77206;SDS011;66190;50.708;7.906;2023-03-01T05:34:26;19.80;;;7.72;;
77206;SDS011;66190;50.708;7.906;2023-03-01T05:36:54;20.10;;;8.25;;
77206;SDS011;66190;50.708;7.906;2023-03-01T05:39:21;19.67;;;7.78;;
77206;SDS011;66190;50.708;7.906;2023-03-01T05:41:48;17.75;;;6.95;;
77206;SDS011;66190;50.708;7.906;2023-03-01T05:44:17;21.20;;;8.07;;
77206;SDS011;66190;50.708;7.906;2023-03-01T05:46:43;20.17;;;8.10;;
77206;SDS011;66190;50.708;7.906;2023-03-01T05:49:09;20.80;;;7.75;;
77206;SDS011;66190;50.708;7.906;2023-03-01T05:51:36;16.07;;;7.60;;
77206;SDS011;66190;50.708;7.906;2023-03-01T05:54:01;20.50;;;7.32;;
77206;SDS011;66190;50.708;7.906;2023-03-01T05:56:27;20.13;;;7.50;;
77206;SDS011;66190;50.708;7.906;2023-03-01T05:58:54;20.15;;;7.60;;
77206;SDS011;66190;50.708;7.906;2023-03-01T06:01:19;19.88;;;8.00;;
77206;SDS011;66190;50.708;7.906;2023-03-01T06:03:45;19.90;;;8.27;;
77206;SDS011;66190;50.708;7.906;2023-03-01T06:06:11;21.13;;;7.80;;
77206;SDS011;66190;50.708;7.906;2023-03-01T06:08:37;20.17;;;7.82;;
77206;SDS011;66190;50.708;7.906;2023-03-01T06:11:02;22.80;;;7.47;;
77206;SDS011;66190;50.708;7.906;2023-03-01T06:13:28;17.30;;;7.53;;
77206;SDS011;66190;50.708;7.906;2023-03-01T06:15:54;20.83;;;7.78;;
77206;SDS011;66190;50.708;7.906;2023-03-01T06:18:20;21.47;;;7.37;;
77206;SDS011;66190;50.708;7.906;2023-03-01T06:20:52;20.80;;;6.68;;
77206;SDS011;66190;50.708;7.906;2023-03-01T06:23:21;23.95;;;7.97;;
77206;SDS011;66190;50.708;7.906;2023-03-01T06:25:47;21.77;;;8.05;;
77206;SDS011;66190;50.708;7.906;2023-03-01T06:28:13;20.17;;;8.13;;
77206;SDS011;66190;50.708;7.906;2023-03-01T06:30:38;20.73;;;7.10;;
77206;SDS011;66190;50.708;7.906;2023-03-01T06:33:04;21.57;;;7.80;;
77206;SDS011;66190;50.708;7.906;2023-03-01T06:35:30;20.00;;;7.78;;
77206;SDS011;66190;50.708;7.906;2023-03-01T06:37:56;18.80;;;7.43;;
77206;SDS011;66190;50.708;7.906;2023-03-01T06:40:23;21.60;;;7.72;;
77206;SDS011;66190;50.708;7.906;2023-03-01T06:42:49;19.40;;;8.15;;
77206;SDS011;66190;50.708;7.906;2023-03-01T06:45:16;18.53;;;7.70;;
77206;SDS011;66190;50.708;7.906;2023-03-01T06:47:44;21.60;;;8.10;;
77206;SDS011;66190;50.708;7.906;2023-03-01T06:50:10;22.27;;;8.30;;
77206;SDS011;66190;50.708;7.906;2023-03-01T06:52:37;22.27;;;8.23;;
77206;SDS011;66190;50.708;7.906;2023-03-01T06:55:03;21.67;;;8.10;;
77206;SDS011;66190;50.708;7.906;2023-03-01T06:57:29;24.75;;;9.10;;
77206;SDS011;66190;50.708;7.906;2023-03-01T06:59:55;20.93;;;7.70;;
77206;SDS011;66190;50.708;7.906;2023-03-01T07:02:21;21.38;;;8.15;;
77206;SDS011;66190;50.708;7.906;2023-03-01T07:04:47;18.60;;;7.63;;
77206;SDS011;66190;50.708;7.906;2023-03-01T07:07:14;21.27;;;7.47;;
77206;SDS011;66190;50.708;7.906;2023-03-01T07:09:40;22.30;;;7.90;;
77206;SDS011;66190;50.708;7.906;2023-03-01T07:12:06;18.80;;;6.77;;
77206;SDS011;66190;50.708;7.906;2023-03-01T07:14:31;20.48;;;7.82;;
77206;SDS011;66190;50.708;7.906;2023-03-01T07:16:57;17.70;;;7.30;;
77206;SDS011;66190;50.708;7.906;2023-03-01T07:19:23;18.77;;;7.30;;
77206;SDS011;66190;50.708;7.906;2023-03-01T07:21:48;22.40;;;7.95;;
77206;SDS011;66190;50.708;7.906;2023-03-01T07:24:14;18.03;;;6.60;;
77206;SDS011;66190;50.708;7.906;2023-03-01T07:26:40;16.63;;;7.10;;
77206;SDS011;66190;50.708;7.906;2023-03-01T07:29:06;19.53;;;7.20;;
77206;SDS011;66190;50.708;7.906;2023-03-01T07:31:33;18.58;;;8.02;;
77206;SDS011;66190;50.708;7.906;2023-03-01T07:33:59;24.10;;;7.13;;
77206;SDS011;66190;50.708;7.906;2023-03-01T07:36:25;21.83;;;7.67;;
77206;SDS011;66190;50.708;7.906;2023-03-01T07:38:51;19.40;;;7.15;;
77206;SDS011;66190;50.708;7.906;2023-03-01T07:41:17;20.10;;;6.73;;
77206;SDS011;66190;50.708;7.906;2023-03-01T07:43:43;18.15;;;7.60;;
77206;SDS011;66190;50.708;7.906;2023-03-01T07:46:08;20.42;;;7.57;;
77206;SDS011;66190;50.708;7.906;2023-03-01T07:48:34;18.67;;;7.47;;
77206;SDS011;66190;50.708;7.906;2023-03-01T07:51:00;16.98;;;6.53;;
77206;SDS011;66190;50.708;7.906;2023-03-01T07:53:28;20.05;;;7.22;;
77206;SDS011;66190;50.708;7.906;2023-03-01T07:56:02;17.65;;;6.53;;
77206;SDS011;66190;50.708;7.906;2023-03-01T07:58:29;18.85;;;7.15;;
77206;SDS011;66190;50.708;7.906;2023-03-01T08:00:55;17.40;;;5.97;;
77206;SDS011;66190;50.708;7.906;2023-03-01T08:03:20;17.70;;;6.80;;
77206;SDS011;66190;50.708;7.906;2023-03-01T08:05:46;19.17;;;7.40;;
77206;SDS011;66190;50.708;7.906;2023-03-01T08:08:12;19.20;;;7.90;;
77206;SDS011;66190;50.708;7.906;2023-03-01T08:10:37;18.98;;;7.28;;
77206;SDS011;66190;50.708;7.906;2023-03-01T08:13:03;18.73;;;7.43;;
77206;SDS011;66190;50.708;7.906;2023-03-01T08:15:29;19.10;;;7.47;;
77206;SDS011;66190;50.708;7.906;2023-03-01T08:17:55;16.95;;;6.57;;
77206;SDS011;66190;50.708;7.906;2023-03-01T08:20:20;18.98;;;7.20;;
77206;SDS011;66190;50.708;7.906;2023-03-01T08:22:46;19.33;;;6.97;;
77206;SDS011;66190;50.708;7.906;2023-03-01T08:25:11;18.52;;;7.25;;
77206;SDS011;66190;50.708;7.906;2023-03-01T08:27:38;19.58;;;7.18;;
77206;SDS011;66190;50.708;7.906;2023-03-01T08:30:04;16.65;;;6.82;;
77206;SDS011;66190;50.708;7.906;2023-03-01T08:32:34;18.27;;;7.50;;
77206;SDS011;66190;50.708;7.906;2023-03-01T08:35:01;16.73;;;7.28;;
77206;SDS011;66190;50.708;7.906;2023-03-01T08:37:26;16.73;;;6.45;;
77206;SDS011;66190;50.708;7.906;2023-03-01T08:39:55;17.20;;;6.57;;
77206;SDS011;66190;50.708;7.906;2023-03-01T08:42:21;17.83;;;6.93;;
77206;SDS011;66190;50.708;7.906;2023-03-01T08:44:48;15.30;;;6.03;;
77206;SDS011;66190;50.708;7.906;2023-03-01T08:47:13;15.03;;;6.70;;
77206;SDS011;66190;50.708;7.906;2023-03-01T08:49:39;20.23;;;8.13;;
77206;SDS011;66190;50.708;7.906;2023-03-01T08:52:06;17.43;;;7.27;;
77206;SDS011;66190;50.708;7.906;2023-03-01T08:54:31;17.35;;;7.50;;
77206;SDS011;66190;50.708;7.906;2023-03-01T08:56:57;16.50;;;6.27;;
77206;SDS011;66190;50.708;7.906;2023-03-01T08:59:25;16.33;;;6.50;;
77206;SDS011;66190;50.708;7.906;2023-03-01T09:01:51;18.80;;;7.53;;
77206;SDS011;66190;50.708;7.906;2023-03-01T09:04:17;18.80;;;6.82;;
77206;SDS011;66190;50.708;7.906;2023-03-01T09:06:44;17.37;;;7.10;;
77206;SDS011;66190;50.708;7.906;2023-03-01T09:09:17;20.30;;;6.22;;
77206;SDS011;66190;50.708;7.906;2023-03-01T09:11:43;18.58;;;7.30;;
77206;SDS011;66190;50.708;7.906;2023-03-01T09:14:16;16.00;;;7.07;;
77206;SDS011;66190;50.708;7.906;2023-03-01T09:16:42;16.38;;;6.38;;
77206;SDS011;66190;50.708;7.906;2023-03-01T09:19:17;15.85;;;5.93;;
77206;SDS011;66190;50.708;7.906;2023-03-01T09:21:42;13.75;;;6.43;;
77206;SDS011;66190;50.708;7.906;2023-03-01T09:24:18;16.35;;;6.28;;
77206;SDS011;66190;50.708;7.906;2023-03-01T09:26:45;14.20;;;6.23;;
77206;SDS011;66190;50.708;7.906;2023-03-01T09:29:16;15.73;;;6.22;;
77206;SDS011;66190;50.708;7.906;2023-03-01T09:31:42;17.10;;;6.20;;
77206;SDS011;66190;50.708;7.906;2023-03-01T09:34:17;13.13;;;5.95;;
77206;SDS011;66190;50.708;7.906;2023-03-01T09:36:48;14.93;;;4.90;;
77206;SDS011;66190;50.708;7.906;2023-03-01T09:39:15;14.80;;;6.45;;
77206;SDS011;66190;50.708;7.906;2023-03-01T09:47:19;14.90;;;5.40;;
77206;SDS011;66190;50.708;7.906;2023-03-01T09:50:09;14.27;;;5.10;;
77206;SDS011;66190;50.708;7.906;2023-03-01T09:52:42;15.85;;;6.20;;
77206;SDS011;66190;50.708;7.906;2023-03-01T09:55:10;15.85;;;5.97;;
77206;SDS011;66190;50.708;7.906;2023-03-01T09:57:43;14.95;;;6.68;;
77206;SDS011;66190;50.708;7.906;2023-03-01T10:02:53;13.53;;;5.63;;
77206;SDS011;66190;50.708;7.906;2023-03-01T10:11:01;13.35;;;4.97;;
77206;SDS011;66190;50.708;7.906;2023-03-01T10:16:18;14.00;;;5.07;;
77206;SDS011;66190;50.708;7.906;2023-03-01T10:18:53;12.38;;;5.40;;
77206;SDS011;66190;50.708;7.906;2023-03-01T10:21:26;13.73;;;5.53;;
77206;SDS011;66190;50.708;7.906;2023-03-01T10:23:59;11.80;;;4.93;;
77206;SDS011;66190;50.708;7.906;2023-03-01T10:29:49;16.60;;;5.27;;
77206;SDS011;66190;50.708;7.906;2023-03-01T10:32:19;12.25;;;4.75;;
77206;SDS011;66190;50.708;7.906;2023-03-01T10:34:46;13.30;;;5.47;;
77206;SDS011;66190;50.708;7.906;2023-03-01T10:37:16;13.93;;;5.65;;
77206;SDS011;66190;50.708;7.906;2023-03-01T10:42:30;13.68;;;5.45;;
77206;SDS011;66190;50.708;7.906;2023-03-01T10:44:58;13.00;;;5.10;;
77206;SDS011;66190;50.708;7.906;2023-03-01T10:48:03;14.98;;;5.20;;
77206;SDS011;66190;50.708;7.906;2023-03-01T10:51:04;13.13;;;5.00;;
77206;SDS011;66190;50.708;7.906;2023-03-01T10:53:39;12.30;;;5.00;;
77206;SDS011;66190;50.708;7.906;2023-03-01T10:56:14;12.25;;;5.03;;
77206;SDS011;66190;50.708;7.906;2023-03-01T11:01:30;13.52;;;5.30;;
77206;SDS011;66190;50.708;7.906;2023-03-01T11:06:35;12.77;;;4.90;;
77206;SDS011;66190;50.708;7.906;2023-03-01T11:09:18;13.48;;;4.95;;
77206;SDS011;66190;50.708;7.906;2023-03-01T11:11:52;12.93;;;5.15;;
77206;SDS011;66190;50.708;7.906;2023-03-01T11:14:25;13.25;;;4.97;;
77206;SDS011;66190;50.708;7.906;2023-03-01T11:19:31;13.67;;;4.97;;
77206;SDS011;66190;50.708;7.906;2023-03-01T11:22:07;16.00;;;5.90;;
77206;SDS011;66190;50.708;7.906;2023-03-01T11:24:43;13.63;;;5.97;;
77206;SDS011;66190;50.708;7.906;2023-03-01T11:27:34;13.32;;;5.50;;
77206;SDS011;66190;50.708;7.906;2023-03-01T11:30:05;10.27;;;3.90;;
77206;SDS011;66190;50.708;7.906;2023-03-01T11:32:53;11.70;;;4.53;;
77206;SDS011;66190;50.708;7.906;2023-03-01T11:35:42;12.43;;;4.65;;
77206;SDS011;66190;50.708;7.906;2023-03-01T11:38:15;10.27;;;4.57;;
77206;SDS011;66190;50.708;7.906;2023-03-01T11:40:49;11.15;;;4.18;;
77206;SDS011;66190;50.708;7.906;2023-03-01T11:43:29;12.70;;;4.90;;
77206;SDS011;66190;50.708;7.906;2023-03-01T12:00:00;13.40;;;5.33;;
77206;SDS011;66190;50.708;7.906;2023-03-01T12:05:07;11.25;;;5.22;;
77206;SDS011;66190;50.708;7.906;2023-03-01T12:16:24;10.90;;;4.18;;
77206;SDS011;66190;50.708;7.906;2023-03-01T12:22:00;9.50;;;3.58;;
77206;SDS011;66190;50.708;7.906;2023-03-01T12:24:33;10.60;;;4.35;;
77206;SDS011;66190;50.708;7.906;2023-03-01T12:29:51;10.75;;;3.60;;
77206;SDS011;66190;50.708;7.906;2023-03-01T12:34:52;10.15;;;4.10;;
77206;SDS011;66190;50.708;7.906;2023-03-01T12:37:34;10.43;;;3.30;;
77206;SDS011;66190;50.708;7.906;2023-03-01T12:46:02;12.82;;;4.38;;
77206;SDS011;66190;50.708;7.906;2023-03-01T12:51:28;9.95;;;3.90;;
77206;SDS011;66190;50.708;7.906;2023-03-01T12:53:58;8.33;;;3.13;;
77206;SDS011;66190;50.708;7.906;2023-03-01T12:56:28;9.02;;;3.58;;
77206;SDS011;66190;50.708;7.906;2023-03-01T13:02:07;8.88;;;3.40;;
77206;SDS011;66190;50.708;7.906;2023-03-01T13:07:49;10.23;;;3.80;;
77206;SDS011;66190;50.708;7.906;2023-03-01T13:10:34;9.02;;;3.42;;
77206;SDS011;66190;50.708;7.906;2023-03-01T13:15:33;9.45;;;3.97;;
77206;SDS011;66190;50.708;7.906;2023-03-01T13:18:43;9.57;;;3.65;;
77206;SDS011;66190;50.708;7.906;2023-03-01T13:20:53;9.73;;;3.50;;
77206;SDS011;66190;50.708;7.906;2023-03-01T13:23:26;8.02;;;3.15;;
77206;SDS011;66190;50.708;7.906;2023-03-01T13:33:47;8.97;;;3.60;;
77206;SDS011;66190;50.708;7.906;2023-03-01T13:36:45;9.57;;;3.40;;
77206;SDS011;66190;50.708;7.906;2023-03-01T13:39:02;9.93;;;3.80;;
77206;SDS011;66190;50.708;7.906;2023-03-01T13:49:35;10.95;;;4.53;;
77206;SDS011;66190;50.708;7.906;2023-03-01T13:52:43;10.52;;;3.75;;
77206;SDS011;66190;50.708;7.906;2023-03-01T13:58:05;10.65;;;4.30;;
77206;SDS011;66190;50.708;7.906;2023-03-01T14:00:54;10.20;;;4.20;;
77206;SDS011;66190;50.708;7.906;2023-03-01T14:03:25;11.38;;;4.32;;
77206;SDS011;66190;50.708;7.906;2023-03-01T14:06:05;9.30;;;3.67;;
77206;SDS011;66190;50.708;7.906;2023-03-01T14:08:33;10.37;;;4.40;;
77206;SDS011;66190;50.708;7.906;2023-03-01T14:11:13;11.45;;;4.03;;
77206;SDS011;66190;50.708;7.906;2023-03-01T14:13:54;9.50;;;3.70;;
77206;SDS011;66190;50.708;7.906;2023-03-01T14:20:00;9.10;;;3.90;;
77206;SDS011;66190;50.708;7.906;2023-03-01T14:22:33;9.00;;;3.30;;
77206;SDS011;66190;50.708;7.906;2023-03-01T14:25:00;9.68;;;3.70;;
77206;SDS011;66190;50.708;7.906;2023-03-01T14:27:38;10.18;;;3.72;;
77206;SDS011;66190;50.708;7.906;2023-03-01T14:32:37;9.32;;;4.03;;
77206;SDS011;66190;50.708;7.906;2023-03-01T14:35:03;9.73;;;3.70;;
77206;SDS011;66190;50.708;7.906;2023-03-01T14:37:50;10.85;;;4.38;;
77206;SDS011;66190;50.708;7.906;2023-03-01T14:43:09;10.00;;;3.20;;
77206;SDS011;66190;50.708;7.906;2023-03-01T14:45:37;10.85;;;3.97;;
77206;SDS011;66190;50.708;7.906;2023-03-01T14:48:03;9.95;;;4.20;;
77206;SDS011;66190;50.708;7.906;2023-03-01T14:50:32;10.80;;;4.03;;
77206;SDS011;66190;50.708;7.906;2023-03-01T14:53:05;8.97;;;3.80;;
77206;SDS011;66190;50.708;7.906;2023-03-01T14:55:38;11.95;;;3.88;;
77206;SDS011;66190;50.708;7.906;2023-03-01T14:58:13;9.45;;;3.92;;
77206;SDS011;66190;50.708;7.906;2023-03-01T15:00:51;9.98;;;3.88;;
77206;SDS011;66190;50.708;7.906;2023-03-01T15:05:52;11.30;;;4.20;;
77206;SDS011;66190;50.708;7.906;2023-03-01T15:08:20;10.55;;;3.80;;
77206;SDS011;66190;50.708;7.906;2023-03-01T15:13:39;10.25;;;3.65;;
77206;SDS011;66190;50.708;7.906;2023-03-01T15:16:07;8.95;;;4.10;;
77206;SDS011;66190;50.708;7.906;2023-03-01T15:18:43;9.93;;;3.90;;
77206;SDS011;66190;50.708;7.906;2023-03-01T15:21:27;10.18;;;3.70;;
77206;SDS011;66190;50.708;7.906;2023-03-01T15:24:05;10.77;;;4.15;;
77206;SDS011;66190;50.708;7.906;2023-03-01T15:27:14;9.88;;;3.92;;
77206;SDS011;66190;50.708;7.906;2023-03-01T15:29:27;10.75;;;3.95;;
77206;SDS011;66190;50.708;7.906;2023-03-01T15:31:57;9.50;;;3.80;;
77206;SDS011;66190;50.708;7.906;2023-03-01T15:34:37;10.52;;;4.03;;
77206;SDS011;66190;50.708;7.906;2023-03-01T15:37:04;9.80;;;4.82;;
77206;SDS011;66190;50.708;7.906;2023-03-01T15:39:40;10.18;;;3.92;;
77206;SDS011;66190;50.708;7.906;2023-03-01T15:42:11;11.35;;;3.97;;
77206;SDS011;66190;50.708;7.906;2023-03-01T15:45:11;8.80;;;4.00;;
77206;SDS011;66190;50.708;7.906;2023-03-01T15:47:49;10.23;;;4.05;;
77206;SDS011;66190;50.708;7.906;2023-03-01T15:52:52;10.63;;;4.95;;
77206;SDS011;66190;50.708;7.906;2023-03-01T15:55:19;11.30;;;4.40;;
77206;SDS011;66190;50.708;7.906;2023-03-01T15:58:04;15.60;;;6.13;;
77206;SDS011;66190;50.708;7.906;2023-03-01T16:00:35;12.23;;;4.95;;
77206;SDS011;66190;50.708;7.906;2023-03-01T16:03:00;11.30;;;4.50;;
77206;SDS011;66190;50.708;7.906;2023-03-01T16:05:27;11.23;;;4.83;;
77206;SDS011;66190;50.708;7.906;2023-03-01T16:07:59;10.18;;;5.18;;
77206;SDS011;66190;50.708;7.906;2023-03-01T16:10:25;10.95;;;3.92;;
77206;SDS011;66190;50.708;7.906;2023-03-01T16:12:52;10.68;;;4.30;;
77206;SDS011;66190;50.708;7.906;2023-03-01T16:15:22;11.93;;;4.07;;
77206;SDS011;66190;50.708;7.906;2023-03-01T16:17:50;11.27;;;3.83;;
77206;SDS011;66190;50.708;7.906;2023-03-01T16:20:17;9.63;;;3.75;;
77206;SDS011;66190;50.708;7.906;2023-03-01T16:22:44;9.60;;;3.60;;
77206;SDS011;66190;50.708;7.906;2023-03-01T16:25:12;9.63;;;4.05;;
77206;SDS011;66190;50.708;7.906;2023-03-01T16:27:44;11.40;;;3.83;;
77206;SDS011;66190;50.708;7.906;2023-03-01T16:30:11;10.98;;;3.80;;
77206;SDS011;66190;50.708;7.906;2023-03-01T16:32:38;10.98;;;3.63;;
77206;SDS011;66190;50.708;7.906;2023-03-01T16:35:06;12.32;;;3.88;;
77206;SDS011;66190;50.708;7.906;2023-03-01T16:37:33;11.05;;;4.28;;
77206;SDS011;66190;50.708;7.906;2023-03-01T16:39:59;9.70;;;3.90;;
77206;SDS011;66190;50.708;7.906;2023-03-01T16:42:24;9.77;;;4.07;;
77206;SDS011;66190;50.708;7.906;2023-03-01T16:44:56;10.50;;;4.25;;
77206;SDS011;66190;50.708;7.906;2023-03-01T16:47:22;11.73;;;4.47;;
77206;SDS011;66190;50.708;7.906;2023-03-01T16:49:51;11.23;;;4.53;;
77206;SDS011;66190;50.708;7.906;2023-03-01T16:52:17;12.68;;;4.93;;
77206;SDS011;66190;50.708;7.906;2023-03-01T16:54:45;11.63;;;4.50;;
77206;SDS011;66190;50.708;7.906;2023-03-01T16:57:11;11.38;;;5.55;;
77206;SDS011;66190;50.708;7.906;2023-03-01T16:59:36;10.88;;;4.35;;